Hiler, New York
Current Conditions -  °F | °C
As of 8:54 AM on Wednesday 26 Nov 2014 (Local Time) from KBUF Reporting Station
Broken Clouds Broken Clouds  
Wind Chill: 33°   Ceiling: 3700
Heat Index: 33°   Visibility: 10mi
Dew Point: 24°   Wind: 3mph
Humidity: 70%   Direction: 50°NE
Pressure: 30.18"   Gusts: NA
Location:  42.9735°N, 78.8457°W
Report Text: KBUF 261354Z 05003KT 10SM BKN037 BKN100 BKN200 01/M04 A3018 RMK AO2 SLP230 T00061044
Loading
Personal Weather Stations






























Interactive Weather Map New forecast layout! Learn more

10-Day Weather Forecast

Advertisements
Track Severe Weather on mobile